Data for 03/16/2015

Time Sea-Level Adjusted Pressure Absolute Pressure Temperature Relative Humidity Dew Point   
(mb) (inHg) (mb) (inHg) (C) (F) (%) (C) (F)
00:05 1015 29.97 844 24.92 11.6 52.9 36 -2.9 26.8
00:10 1015 29.97 844 24.92 11.7 53.1 36 -2.9 26.8
00:15 1015 29.97 844 24.92 11.8 53.2 36 -2.6 27.3
00:20 1015 29.97 844 24.92 11.4 52.4 36 -3.2 26.3
00:25 1015 29.97 844 24.92 11.6 52.9 34 -3.6 25.5
00:30 1015 29.97 844 24.92 12.1 53.7 34 -3.3 26.1
00:35 1015 29.97 844 24.92 12.1 53.8 34 -3.4 26
00:40 1015 29.97 844 24.92 11.9 53.4 35 -2.8 26.9
00:45 1015 29.97 844 24.92 11.6 52.8 35 -3.3 26
00:50 1015 29.97 844 24.92 12 53.6 32 -4 24.8
00:55 1015 29.97 844 24.92 12.7 54.9 32 -3.4 25.9
01:00 1015 29.97 844 24.92 12.6 54.8 32 -3.7 25.4
01:05 1015 29.97 844 24.92 12.7 54.9 32 -3.3 26
01:10 1015 29.97 844 24.92 12.5 54.4 32 -3.7 25.3
01:15 1015 29.97 845 24.95 12.7 54.9 31 -3.9 24.9
01:20 1015 29.97 845 24.95 12.9 55.2 31 -3.9 25
01:25 1016 30 845 24.95 13.1 55.5 31 -3.8 25.1
01:30 1016 30 845 24.95 13.2 55.7 30 -3.9 25
01:35 1016 30 845 24.95 13.2 55.8 28 -4.8 23.4
01:40 1016 30 845 24.95 13.7 56.7 28 -4.5 23.8
01:45 1016 30 845 24.95 13.7 56.6 28 -4.4 24.2
01:50 1016 30 845 24.95 13.6 56.4 29 -4.2 24.5
01:55 1016 30 845 24.95 13.4 56.1 29 -4.1 24.6
02:00 1016 30 845 24.95 13.4 56.1 29 -4.4 24.1
02:05 1016 30 845 24.95 13.5 56.3 28 -4.5 23.9
02:10 1016 30 845 24.95 13.6 56.4 28 -4.6 23.7
02:15 1016 30 845 24.95 13.6 56.5 28 -4.6 23.7
02:20 1016 30 846 24.98 13.6 56.5 28 -4.6 23.7
02:25 1016 30 846 24.98 13.7 56.6 27 -4.7 23.6
02:30 1017 30.03 846 24.98 13.8 56.9 27 -4.7 23.5
02:35 1017 30.03 846 24.98 14.1 57.3 26 -4.9 23.3
02:40 1017 30.03 846 24.98 14.3 57.7 26 -4.8 23.3
02:45 1017 30.03 846 24.98 14.3 57.8 26 -4.7 23.5
02:50 1017 30.03 846 24.98 14.3 57.7 26 -4.8 23.3
02:55 1017 30.03 846 24.98 14.2 57.5 27 -4.7 23.5
03:00 1017 30.03 846 24.98 14 57.2 27 -4.6 23.7
03:05 1017 30.03 846 24.98 13.9 57 27 -4.6 23.7
03:10 1017 30.03 846 24.98 13.8 56.9 27 -4.7 23.5
03:15 1017 30.03 846 24.98 13.9 56.9 27 -4.8 23.3
03:20 1017 30.03 846 24.98 13.9 57.1 27 -4.8 23.3
03:25 1017 30.03 846 24.98 13.9 57 28 -4.5 24
03:30 1017 30.03 846 24.98 13.6 56.4 28 -4.5 23.8
03:35 1017 30.03 846 24.98 13.4 56.2 28 -4.5 23.8
03:40 1017 30.03 846 24.98 13.4 56.1 28 -4.5 23.9
03:45 1017 30.03 846 24.98 13.3 56 29 -4.3 24.2
03:50 1017 30.03 846 24.98 13.2 55.7 29 -4.3 24.2
03:55 1017 30.03 846 24.98 13.1 55.5 30 -4.3 24.3
04:00 1017 30.03 846 24.98 13 55.5 30 -4.2 24.5
04:05 1017 30.03 847 25.01 13.3 55.9 30 -4.1 24.6
04:10 1017 30.03 847 25.01 13.1 55.7 30 -3.9 24.9
04:15 1017 30.03 847 25.01 13.1 55.5 31 -3.8 25.1
04:20 1018 30.06 847 25.01 13 55.4 31 -3.8 25.2
04:25 1018 30.06 847 25.01 12.9 55.3 31 -3.6 25.5
04:30 1018 30.06 847 25.01 12.9 55.1 32 -3.4 25.9
04:35 1018 30.06 847 25.01 12.8 55 32 -3.3 26
04:40 1018 30.06 847 25.01 12.8 55.1 33 -3.2 26.3
04:45 1018 30.06 847 25.01 12.7 54.8 33 -3.2 26.2
04:50 1018 30.06 847 25.01 12.5 54.5 33 -3.1 26.4
04:55 1018 30.06 848 25.04 12.4 54.3 39 -1 30.2
05:00 1019 30.09 848 25.04 11.5 52.7 45 -0.1 31.9
05:05 1019 30.09 848 25.04 10.8 51.5 47 -0.1 31.9
05:10 1019 30.09 848 25.04 10.5 50.8 48 0.1 32.1
05:15 1019 30.09 848 25.04 10.2 50.4 49 0.1 32.2
05:20 1019 30.09 848 25.04 10.1 50.1 51 0.3 32.6
05:25 1019 30.09 848 25.04 9.8 49.7 51 0.3 32.5
05:30 1019 30.09 848 25.04 9.8 49.6 51 0.2 32.4
05:35 1019 30.09 848 25.04 9.7 49.4 51 0.2 32.3
05:40 1019 30.09 848 25.04 9.6 49.2 52 0.1 32.2
05:45 1019 30.09 848 25.04 9.5 49.1 52 0.1 32.2
05:50 1019 30.09 849 25.07 9.4 48.9 52 0 32
05:55 1019 30.09 849 25.07 9.3 48.7 52 -0 32
06:00 1020 30.12 849 25.07 9.2 48.5 52 -0.1 31.8
06:05 1020 30.12 849 25.07 9.1 48.3 53 -0.1 31.8
06:10 1020 30.12 849 25.07 9 48.2 53 -0.1 31.8
06:15 1020 30.12 849 25.07 9 48.2 52 -0.2 31.6
06:20 1020 30.12 849 25.07 8.9 48.1 53 -0 32
06:25 1020 30.12 849 25.07 8.7 47.7 54 -0.1 31.8
06:30 1020 30.12 850 25.1 8.7 47.6 54 -0 32
06:35 1021 30.15 850 25.1 8.4 47 57 0.2 32.4
06:40 1021 30.15 850 25.1 7.8 46.1 57 -0.1 31.9
06:45 1021 30.15 850 25.1 7.8 46 58 0.1 32.1
06:50 1021 30.15 850 25.1 7.7 45.9 58 -0.1 31.9
06:55 1021 30.15 850 25.1 7.9 46.1 57 -0.1 31.8
07:00 1021 30.15 850 25.1 7.9 46.3 56 -0.2 31.6
07:05 1021 30.15 850 25.1 7.9 46.2 56 -0.4 31.3
07:10 1021 30.15 851 25.13 7.9 46.2 55 -0.5 31.2
07:15 1021 30.15 851 25.13 7.9 46.1 55 -0.5 31
07:20 1022 30.18 851 25.13 7.9 46.2 55 -0.6 31
07:25 1022 30.18 851 25.13 7.9 46.1 55 -0.6 31
07:30 1022 30.18 851 25.13 7.9 46.2 55 -0.7 30.8
07:35 1022 30.18 851 25.13 8 46.3 54 -0.7 30.8
07:40 1022 30.18 851 25.13 8 46.4 54 -0.7 30.8
07:45 1022 30.18 851 25.13 8 46.4 54 -0.7 30.7
07:50 1022 30.18 851 25.13 8.1 46.5 54 -0.7 30.8
07:55 1022 30.18 852 25.16 8.1 46.6 54 -0.6 30.9
08:00 1022 30.18 852 25.16 8.1 46.6 54 -0.7 30.8
08:05 1023 30.21 852 25.16 8.2 46.7 54 -0.7 30.8
08:10 1023 30.21 852 25.16 8.2 46.7 54 -0.7 30.8
08:15 1023 30.21 852 25.16 8.2 46.7 54 -0.7 30.8
08:20 1023 30.21 852 25.16 8.2 46.8 53 -0.7 30.8
08:25 1023 30.21 852 25.16 8.3 46.9 53 -0.7 30.8
08:30 1023 30.21 852 25.16 8.4 47.1 52 -0.8 30.6
08:35 1023 30.21 852 25.16 8.5 47.3 52 -0.9 30.5
08:40 1023 30.21 852 25.16 8.6 47.5 52 -0.7 30.7
08:45 1023 30.21 852 25.16 8.6 47.4 52 -0.8 30.6
08:50 1023 30.21 852 25.16 8.7 47.6 51 -0.8 30.5
08:55 1023 30.21 852 25.16 8.6 47.5 51 -0.8 30.5
09:00 1023 30.21 852 25.16 8.6 47.5 52 -0.8 30.6
09:05 1023 30.21 852 25.16 8.6 47.6 51 -0.9 30.5
09:10 1023 30.21 853 25.19 8.7 47.6 51 -0.8 30.5
09:15 1023 30.21 853 25.19 8.8 47.8 51 -0.8 30.6
09:20 1023 30.21 853 25.19 8.8 47.8 50 -0.9 30.3
09:25 1023 30.21 853 25.19 8.9 47.9 50 -0.9 30.4
09:30 1023 30.21 853 25.19 9 48.3 49 -1 30.2
09:35 1023 30.21 853 25.19 9.1 48.4 49 -1 30.3
09:40 1023 30.21 853 25.19 9.4 48.9 48 -1 30.1
09:45 1023 30.21 853 25.19 9.5 49 48 -0.9 30.4
09:50 1024 30.24 853 25.19 9.4 49 47 -1.2 29.8
09:55 1024 30.24 853 25.19 9.6 49.3 46 -1.3 29.7
10:00 1024 30.24 853 25.19 9.6 49.3 46 -1.4 29.5
10:05 1024 30.24 853 25.19 9.9 49.7 45 -1.5 29.4
10:10 1024 30.24 853 25.19 10.2 50.4 44 -1.5 29.3
10:15 1024 30.24 853 25.19 10.3 50.5 44 -1.3 29.7
10:20 1024 30.24 853 25.19 10 50.1 44 -1.5 29.3
10:25 1024 30.24 853 25.19 10.3 50.5 43 -1.8 28.8
10:30 1024 30.24 853 25.19 10.3 50.5 43 -1.6 29.1
10:35 1024 30.24 853 25.19 10.1 50.2 44 -1.6 29
10:40 1024 30.24 853 25.19 10.2 50.3 43 -1.9 28.7
10:45 1024 30.24 853 25.19 10.5 50.9 43 -1.7 29
10:50 1024 30.24 853 25.19 10.6 51.1 42 -1.7 29
10:55 1024 30.24 853 25.19 10.8 51.5 41 -1.8 28.8
11:00 1024 30.24 853 25.19 10.9 51.5 40 -2.1 28.2
11:05 1024 30.24 853 25.19 10.6 51.1 42 -1.7 28.9
11:10 1024 30.24 853 25.19 10.1 50.2 42 -2.3 27.9
11:15 1024 30.24 853 25.19 10.8 51.4 42 -1.6 29.2
11:20 1024 30.24 853 25.19 10.9 51.6 41 -1.9 28.5
11:25 1024 30.24 853 25.19 10.7 51.3 41 -2.1 28.3
11:30 1024 30.24 853 25.19 11 51.7 41 -1.9 28.7
11:35 1024 30.24 853 25.19 11.2 52.2 39 -2.1 28.2
11:40 1024 30.24 853 25.19 11.9 53.4 38 -1.8 28.7
11:45 1024 30.24 853 25.19 12 53.6 36 -2.5 27.5
11:50 1024 30.24 853 25.19 11.9 53.4 38 -1.9 28.5
11:55 1024 30.24 853 25.19 11.5 52.6 38 -2.4 27.6
12:00 1024 30.24 853 25.19 11.4 52.6 39 -1.9 28.5
12:05 1024 30.24 853 25.19 11.2 52.1 40 -2.1 28.3
12:10 1024 30.24 853 25.19 10.5 51 42 -1.8 28.8
12:15 1024 30.24 853 25.19 10.9 51.6 39 -2.4 27.7
12:20 1024 30.24 853 25.19 11.3 52.3 39 -2.1 28.3
12:25 1024 30.24 853 25.19 11.2 52.2 43 -0.9 30.3
12:30 1024 30.24 853 25.19 9.9 49.8 47 -0.7 30.7
12:35 1024 30.24 853 25.19 9.2 48.6 50 -0.7 30.7
12:40 1024 30.24 853 25.19 9 48.3 51 -0.5 31.1
12:45 1024 30.24 853 25.19 9.2 48.5 50 -0.7 30.7
12:50 1024 30.24 853 25.19 9.2 48.6 52 -0.2 31.7
12:55 1024 30.24 853 25.19 9.4 48.8 51 -0.2 31.7
13:00 1024 30.24 853 25.19 8.8 47.8 53 -0.2 31.7
13:05 1024 30.24 853 25.19 8.7 47.6 53 -0.3 31.4
13:10 1024 30.24 853 25.19 8.4 47.1 54 -0.3 31.5
13:15 1024 30.24 853 25.19 8.1 46.6 54 -0.6 31
13:20 1024 30.24 853 25.19 8.2 46.8 54 -0.6 30.8
13:25 1024 30.24 853 25.19 7.9 46.3 54 -0.8 30.5
13:30 1024 30.24 853 25.19 7.9 46.2 55 -0.5 31.2
13:35 1024 30.24 853 25.19 7.4 45.3 56 -0.8 30.5
13:40 1024 30.24 853 25.19 7.1 44.8 56 -1.1 30.1
13:45 1024 30.24 853 25.19 7.1 44.8 56 -1.1 30.1
13:50 1024 30.24 853 25.19 6.9 44.4 56 -1.3 29.7
13:55 1024 30.24 853 25.19 6.7 44.1 57 -1.2 29.8
14:00 1024 30.24 853 25.19 6.6 43.9 57 -1.3 29.7
14:05 1024 30.24 853 25.19 6.4 43.5 58 -1.2 29.8
14:10 1024 30.24 853 25.19 6.4 43.6 58 -1.3 29.7
14:15 1024 30.24 853 25.19 6.3 43.3 58 -1.4 29.5
14:20 1024 30.24 853 25.19 6.2 43.2 58 -1.4 29.5
14:25 1024 30.24 853 25.19 6.3 43.4 58 -1.3 29.6
14:30 1024 30.24 853 25.19 6.2 43.1 59 -1.2 29.8
14:35 1024 30.24 853 25.19 6 42.7 60 -1.2 29.9
14:40 1024 30.24 853 25.19 5.6 42.1 62 -1.1 30
14:45 1024 30.24 853 25.19 5.6 42 62 -1.2 29.9
14:50 1024 30.24 853 25.19 5.5 41.9 63 -1 30.3
14:55 1024 30.24 853 25.19 5.2 41.4 65 -0.7 30.7
15:00 1024 30.24 853 25.19 4.9 40.8 68 -0.6 31
15:05 1024 30.24 853 25.19 4.7 40.4 69 -0.6 30.9
15:10 1024 30.24 853 25.19 4.6 40.3 71 -0.3 31.5
15:15 1024 30.24 853 25.19 4.2 39.5 73 -0.3 31.5
15:20 1024 30.24 854 25.22 4 39.2 74 -0.2 31.6
15:25 1024 30.24 854 25.22 3.5 38.4 76 -0.3 31.5
15:30 1024 30.24 854 25.22 3.4 38.1 76 -0.5 31.1
15:35 1025 30.27 854 25.22 3.2 37.8 77 -0.4 31.3
15:40 1024 30.24 854 25.22 2.9 37.3 78 -0.6 31
15:45 1024 30.24 854 25.22 2.8 37 79 -0.5 31.1
15:50 1024 30.24 854 25.22 2.6 36.6 79 -0.6 30.9
15:55 1024 30.24 854 25.22 2.3 36.2 80 -0.8 30.6
16:00 1025 30.27 854 25.22 2.3 36.2 79 -0.9 30.3
16:05 1024 30.24 854 25.22 2.2 36 79 -1.1 30
16:10 1024 30.24 854 25.22 2.2 35.9 78 -1.2 29.8
16:15 1024 30.24 854 25.22 1.9 35.4 78 -1.5 29.3
16:20 1025 30.27 854 25.22 1.8 35.2 78 -1.6 29.1
16:25 1024 30.24 854 25.22 1.7 35.1 79 -1.6 29.1
16:30 1024 30.24 854 25.22 1.7 35 78 -1.8 28.8
16:35 1025 30.27 854 25.22 1.6 34.9 78 -1.8 28.7
16:40 1025 30.27 854 25.22 1.6 34.8 78 -1.8 28.7
16:45 1025 30.27 854 25.22 1.4 34.6 79 -1.9 28.6
16:50 1025 30.27 854 25.22 1.4 34.6 78 -1.9 28.5
16:55 1025 30.27 854 25.22 1.3 34.3 79 -2 28.4
17:00 1025 30.27 854 25.22 1.1 34 80 -2 28.4
17:05 1025 30.27 854 25.22 1.1 33.9 80 -2.1 28.3
17:10 1025 30.27 854 25.22 1.1 34 79 -2.1 28.2
17:15 1025 30.27 854 25.22 1 33.7 80 -2.2 28.1
17:20 1025 30.27 854 25.22 0.9 33.7 79 -2.3 27.8
17:25 1025 30.27 854 25.22 0.9 33.6 78 -2.5 27.5
17:30 1025 30.27 854 25.22 0.9 33.6 78 -2.5 27.5
17:35 1025 30.27 854 25.22 0.8 33.5 78 -2.5 27.4
17:40 1025 30.27 854 25.22 0.7 33.3 79 -2.6 27.4
17:45 1025 30.27 854 25.22 0.7 33.3 78 -2.7 27.1
17:50 1025 30.27 854 25.22 0.7 33.2 78 -2.8 27
17:55 1025 30.27 854 25.22 0.6 33.1 78 -2.8 26.9
18:00 1025 30.27 854 25.22 0.5 32.9 79 -2.8 27
18:05 1025 30.27 854 25.22 0.5 32.8 79 -2.8 27
18:10 1025 30.27 855 25.25 0.4 32.8 79 -2.9 26.8
18:15 1025 30.27 854 25.22 0.5 32.8 78 -2.9 26.8
18:20 1025 30.27 855 25.25 0.4 32.7 78 -2.9 26.8
18:25 1025 30.27 855 25.25 0.4 32.7 78 -3 26.6
18:30 1025 30.27 855 25.25 0.4 32.8 78 -3 26.6
18:35 1025 30.27 855 25.25 0.5 32.9 77 -3.1 26.3
18:40 1026 30.3 855 25.25 0.6 33 76 -3.1 26.4
18:45 1026 30.3 855 25.25 0.6 33.1 76 -3.1 26.4
18:50 1026 30.3 855 25.25 0.6 33.2 76 -3 26.5
18:55 1026 30.3 855 25.25 0.6 33 77 -3.1 26.5
19:00 1026 30.3 855 25.25 0.5 33 77 -3 26.6
19:05 1026 30.3 855 25.25 0.5 32.9 78 -3 26.7
19:10 1026 30.3 855 25.25 0.4 32.8 78 -3 26.6
19:15 1026 30.3 855 25.25 0.4 32.8 78 -2.9 26.7
19:20 1026 30.3 855 25.25 0.4 32.7 79 -2.9 26.8
19:25 1026 30.3 855 25.25 0.4 32.7 79 -2.9 26.8
19:30 1026 30.3 855 25.25 0.4 32.8 78 -3 26.7
19:35 1026 30.3 855 25.25 0.5 32.8 78 -3 26.6
19:40 1026 30.3 855 25.25 0.6 33.1 77 -3 26.6
19:45 1026 30.3 855 25.25 0.6 33.1 77 -3 26.7
19:50 1026 30.3 855 25.25 0.5 33 78 -2.9 26.7
19:55 1026 30.3 855 25.25 0.5 32.9 77 -3 26.5
20:00 1026 30.3 855 25.25 0.6 33 76 -3.1 26.4
20:05 1026 30.3 855 25.25 0.6 33.1 77 -3 26.5
20:10 1026 30.3 855 25.25 0.6 33 77 -3 26.5
20:15 1026 30.3 855 25.25 0.6 33.1 77 -3.1 26.5
20:20 1026 30.3 855 25.25 0.5 33 77 -3.1 26.4
20:25 1026 30.3 855 25.25 0.5 33 77 -3.1 26.5
20:30 1026 30.3 855 25.25 0.6 33 76 -3.1 26.4
20:35 1026 30.3 855 25.25 0.6 33 76 -3.1 26.4
20:40 1026 30.3 855 25.25 0.6 33.1 76 -3.1 26.4
20:45 1026 30.3 855 25.25 0.5 32.9 77 -3 26.5
20:50 1026 30.3 855 25.25 0.5 32.8 78 -3 26.7
20:55 1026 30.3 855 25.25 0.4 32.7 78 -3 26.6
21:00 1026 30.3 855 25.25 0.3 32.6 79 -2.9 26.8
21:05 1026 30.3 855 25.25 0.3 32.5 79 -3 26.7
21:10 1026 30.3 855 25.25 0.3 32.5 79 -3 26.6
21:15 1026 30.3 855 25.25 0.3 32.5 79 -3 26.5
21:20 1026 30.3 855 25.25 0.3 32.5 79 -3 26.6
21:25 1026 30.3 855 25.25 0.2 32.4 79 -3.1 26.5
21:30 1026 30.3 855 25.25 0.2 32.4 79 -3 26.6
21:35 1026 30.3 855 25.25 0.2 32.3 79 -3 26.5
21:40 1026 30.3 855 25.25 0.1 32.2 79 -3 26.5
21:45 1026 30.3 855 25.25 0.1 32.3 79 -3 26.6
21:50 1026 30.3 855 25.25 0.2 32.3 79 -3 26.6
21:55 1026 30.3 855 25.25 0.1 32.2 80 -3 26.7
22:00 1026 30.3 855 25.25 0.1 32.2 79 -3.1 26.5
22:05 1026 30.3 855 25.25 0.1 32.3 79 -3 26.5
22:10 1026 30.3 855 25.25 0.2 32.3 79 -3.1 26.4
22:15 1026 30.3 855 25.25 0.1 32.2 78 -3.2 26.2
22:20 1026 30.3 855 25.25 0.1 32.2 78 -3.2 26.2
22:25 1026 30.3 855 25.25 0.2 32.3 79 -3.1 26.4
22:30 1026 30.3 855 25.25 0.1 32.1 79 -3.2 26.3
22:35 1026 30.3 855 25.25 0 32.1 79 -3.2 26.2
22:40 1026 30.3 855 25.25 0.1 32.1 78 -3.3 26
22:45 1026 30.3 855 25.25 0.1 32.1 78 -3.3 26
22:50 1026 30.3 855 25.25 0.1 32.1 78 -3.4 25.9
22:55 1026 30.3 855 25.25 0 32.1 77 -3.4 25.8
23:00 1026 30.3 855 25.25 0 32.1 78 -3.4 25.8
23:05 1026 30.3 855 25.25 -0 31.9 78 -3.5 25.8
23:10 1026 30.3 855 25.25 -0 31.9 77 -3.6 25.5
23:15 1026 30.3 855 25.25 -0 32 76 -3.7 25.3
23:20 1026 30.3 855 25.25 0 32.1 76 -3.8 25.2
23:25 1026 30.3 855 25.25 0 32.1 75 -3.9 25
23:30 1026 30.3 855 25.25 0.1 32.1 75 -3.9 25
23:35 1026 30.3 855 25.25 0 32 75 -3.9 24.9
23:40 1026 30.3 855 25.25 0 32 75 -4 24.9
23:45 1026 30.3 855 25.25 -0 31.9 76 -3.9 25
23:50 1026 30.3 855 25.25 -0.1 31.8 76 -3.9 25
23:55 1026 30.3 855 25.25 -0.2 31.7 76 -3.9 25
24:00 1026 30.3 855 25.25 -0.2 31.7 76 -3.9 24.9